NWS Home NWS Lubbock West Texas Mesonet                      Daily Summary For 02/22/2021

Latest   N   C   S   Daily Sum   3hrΔ   24hrΔ   Soil Data 
Site Map   24hr Precip   72hr Precip   Google Plot


Station Time of Last Max Temp Min Temp Max/Min Dew Pt. Max/Min RH 10m Avg Wind 2m Avg Wind Peak Gust @ 33ft (mph) Potential Evapotranspiration
mm/day or in/day
Rain Sum Solar Rad
MJ/m^2
% Clear Day Red Flag
Abernathy 5ENE 11:59 PM 63 60 59 /57 99 / 84 12.9  (E) 9.3 41.7 mph 239° @ 1259 PM 3.6 or 0.14 0.00 20.4 150.3 135
Adrian 6WSW 11:59 PM 63 60 59 /57 99 / 84 9.5  (S) 7 22.5 mph 204° @ 0303 AM 2.3 or 0.09 0.00 20.8 159.6 0
Aiken 3WSW 11:59 PM 63 60 59 /57 99 / 84 11.3  (SE) 8.1 32.8 mph 257° @ 1259 PM 3 or 0.12 0.00 21.4 159.1 0
Amarillo 15NNW 11:59 PM 63 60 59 /57 99 / 84 5.4  (SE) 3.2 14.1 mph 167° @ 1251 AM 1.8 or 0.07 0.00 19.6 152.9 0
Amarillo 7SSE 11:59 PM 63 60 59 /57 99 / 84 5.7  (S) 3.6 13.9 mph 360° @ 0353 PM 1.8 or 0.07 0.00 19.3 148.2 0
Amarillo 9NNE 11:59 PM 63 60 59 /57 99 / 84 4.1  (S) 2.8 15.1 mph 179° @ 0330 AM 1.3 or 0.05 0.00 20.3 157.7 0
Amherst 1NE 11:55 PM 63 60 59 /57 99 / 84 11.9  (S) 8.4 34.9 mph 260° @ 1035 AM 3.3 or 0.13 0.00 4.1 150.2 0
Andrews 2E 11:59 PM 63 60 59 /57 99 / 84 9.4  (W) 5.2 30.7 mph 233° @ 0208 PM 3.3 or 0.13 0.00 21.6 151 0
Anton 6SSW 11:55 PM 63 60 59 /57 99 / 84 12.8  (W) 10.3 39.1 mph 239° @ 1135 AM 3.6 or 0.14 0.00 20.1 147 120
Aspermont 3NE 11:55 PM 63 60 59 /57 99 / 84 9.9  (W) 6 30 mph 248° @ 1135 AM 3 or 0.12 0.00 4 145.7 0
Big Bend NP - Castolon 11:59 PM 63 60 59 /57 99 / 84 4.8  (NW) 3.4 18.1 mph 297° @ 0124 AM 2.5 or 0.1 0.00 22.9 146.6 0
Big Bend NP - Persimmon Gap 11:59 PM 63 60 59 /57 99 / 84 5.1  (NE) 3.8 20.5 mph 214° @ 0224 PM 2.3 or 0.09 0.00 22.2 143.1 0
Big Lake 1WNW 11:59 PM 63 60 59 /57 99 / 84 8.9  (E) 6 25.7 mph 202° @ 0128 PM 2.8 or 0.11 0.00 22.2 150.6 0
Bootleg 11WNW 11:59 PM 63 60 59 /57 99 / 84 9.3  (S) 6.2 20.3 mph 11° @ 0445 PM 2.5 or 0.1 0.00 17.9 135.6 0
Borger 7E 11:59 PM 63 60 59 /57 99 / 84 8.3  (S) 5 16.4 mph 207° @ 0256 AM 2.3 or 0.09 0.00 21.7 171.3 0
Boys Ranch 1WSW 11:59 PM 63 60 59 /57 99 / 84 3  (NE) 2.3 12 mph 251° @ 1239 PM 1.3 or 0.05 0.00 20.4 159.7 0
Brownfield 2S 11:59 PM 63 60 59 /57 99 / 84 13.3  (W) 9.5 36.2 mph 234° @ 0156 PM 3.8 or 0.15 0.00 20.2 145.4 54
Canadian 6E 11:59 PM 63 60 59 /57 99 / 84 5.6  (NW) 3.7 12.5 mph 302° @ 0513 AM 1.8 or 0.07 0.00 20.2 161.3 0
Caprock Canyons State Park 11:59 PM 63 60 59 /57 99 / 84 10.7  (NW) 8 26.5 mph 285° @ 1259 PM 2.8 or 0.11 0.00 21 158.8 0
Childress 2NNE 11:55 PM 63 60 59 /57 99 / 84 8.9  (NW) 5.7 24 mph 206° @ 0955 AM 2.5 or 0.1 0.00 19.6 149 0
Clarendon 2WSW 11:55 PM 63 60 59 /57 99 / 84 6.5  (SW) 4.3 17.8 mph 241° @ 1155 AM 1.8 or 0.07 0.00 20.1 154.5 0
Claude 12SW 11:59 PM 63 60 59 /57 99 / 84 5.2  (S) 3.5 18.6 mph 289° @ 0347 PM 1.5 or 0.06 0.00 21.2 162.6 0
Clyde 2WNW 11:59 PM 63 60 59 /57 99 / 84 11.1  (NE) 7.9 29.5 mph 215° @ 1253 PM 3.3 or 0.13 0.00 20.6 145.8 0
Colorado City 5NW 11:59 PM 63 60 59 /57 99 / 84 9.1  (SW) 5.7 31.2 mph 229° @ 0157 PM 3 or 0.12 0.00 20.6 146.3 9
Comanche Springs 11:59 PM 63 60 59 /57 99 / 84 7  (NW) 4.4 32.9 mph 216° @ 0329 PM 2.5 or 0.1 0.00 21 157.7 0
Coyanosa 2N 11:59 PM 63 60 59 /57 99 / 84 7.5  (SW) 4.3 23.6 mph 247° @ 0314 PM 3 or 0.12 0.00 22 149.7 0
Crane 1NNW 11:59 PM 63 60 59 /57 99 / 84 6.9  (E) 4 25.1 mph 262° @ 0317 PM 2.8 or 0.11 0.00 22.4 153.3 0
Crowell 1E 11:59 PM 63 60 59 /57 99 / 84 9.8  (NW) 7.3 28.9 mph 214° @ 1051 AM 2.8 or 0.11 0.00 20.1 150.7 0
Dell City 11:59 PM 63 60 59 /57 99 / 84 6.1  (W) 4.2 23 mph 293° @ 0357 PM 2.3 or 0.09 0.00 21.1 145.6 0
Denver City 7WNW 11:55 PM 63 60 59 /57 99 / 84 13.6  (W) 9.3 29.1 mph 250° @ 0220 PM 3.8 or 0.15 0.00 22 157.2 0
Dimmitt 2NE 11:55 PM 63 60 59 /57 99 / 84 9.8  (S) 7.4 21.3 mph 260° @ 0940 AM 2.5 or 0.1 0.00 20 150.3 0
Doole 3WNW 11:59 PM 63 60 59 /57 99 / 84 7.7  (SE) 5.4 24 mph 216° @ 0310 PM 3 or 0.12 0.00 21.8 150 0
Dora NM 2SW 11:55 PM 63 60 59 /57 99 / 84 16.4  (W) 13 38.7 mph 258° @ 0125 PM 4.1 or 0.16 0.00 19 139.4 195
Dozier 3W 11:59 PM 63 60 59 /57 99 / 84 0  (N) 0 0 mph 0° @ 0600 PM 0 or 0 0.00 0 0 0
Earth 9WSW 11:59 PM 63 60 59 /57 99 / 84 11.9  (S) 9.7 30.2 mph 252° @ 1228 PM 3.3 or 0.13 0.00 20.2 149.9 0
Endee NM 2SW 11:59 PM 63 60 59 /57 99 / 84 6.3  (SW) 4 16.6 mph 318° @ 0329 PM 2 or 0.08 0.00 19.4 148.4 0
Estelline 3SSE 11:59 PM 63 60 59 /57 99 / 84 6  (SW) 3.1 21 mph 238° @ 0259 PM 2 or 0.08 0.00 20.1 153 0
Floydada 2NNE 11:55 PM 63 60 59 /57 99 / 84 11.9  (NE) 8.7 36.9 mph 254° @ 1255 PM 3.3 or 0.13 0.00 20.2 149.7 150
Fluvanna 3WNW 11:55 PM 63 60 59 /57 99 / 84 12.1  (NE) 8.7 35.1 mph 222° @ 0150 PM 3.6 or 0.14 0.00 19.2 137.8 15
Fort Chadbourne 11:59 PM 63 60 59 /57 99 / 84 6.3  (NW) 4.2 28.4 mph 243° @ 0153 PM 2.5 or 0.1 0.00 20.1 140.6 0
Fort Lancaster 11:59 PM 63 60 59 /57 99 / 84 5.7  (NW) 3.7 23.4 mph 206° @ 1259 PM 2.3 or 0.09 0.00 21.3 142.5 0
Fort Lewis CO 11:59 PM 63 60 59 /57 99 / 84 5.3  (N) 3.8 11.8 mph 36° @ 0246 AM 0.8 or 0.03 0.00 20.3 164.2 0
Fort McKavett 11:59 PM 63 60 59 /57 99 / 84 5.6  (NE) 2.5 22.1 mph 211° @ 0259 PM 2.3 or 0.09 0.00 21.7 145.8 0
Friona 2NE 11:55 PM 63 60 59 /57 99 / 84 8.7  (S) 6.2 25.6 mph 305° @ 0320 PM 2.5 or 0.1 0.00 20.9 157.3 0
Fritch 1WNW 11:59 PM 63 60 59 /57 99 / 84 5.3  (SW) 4 13.4 mph 214° @ 0441 AM 1.5 or 0.06 0.00 20 157.1 0
Gail 2ESE 11:59 PM 63 60 59 /57 99 / 84 11.1  (NW) 6.3 32.9 mph 205° @ 0255 PM 3.3 or 0.13 0.00 21.1 150.3 23
Goodlett 3W 11:55 PM 63 60 59 /57 99 / 84 8.7  (NW) 6.1 28.3 mph 200° @ 1200 PM 2.5 or 0.1 0.00 20.7 156.8 0
Goodnight 11:59 PM 63 60 59 /57 99 / 84 5.2  (S) 3.6 14 mph 264° @ 1041 AM 1.5 or 0.06 0.00 19.6 151 0
Graham 5SSW 11:59 PM 63 60 59 /57 99 / 84 11.1  (E) 8.1 36.2 mph 212° @ 0150 PM 3.3 or 0.13 0.00 21.4 153.8 26
Guadalupe Mtns Natl Park 11:59 PM 63 60 59 /57 99 / 84 14.6  (NW) 10.7 49.3 mph 305° @ 1250 PM 3.6 or 0.14 0.00 22.3 151.3 330
Guthrie 10WSW 11:59 PM 63 60 59 /57 99 / 84 10.2  (NW) 6.2 37.3 mph 220° @ 0121 PM 3.3 or 0.13 0.00 21 155 39
Hackberry 2SSE 11:59 PM 63 60 59 /57 99 / 84 11.7  (SW) 8.4 33.7 mph 250° @ 0254 PM 3.3 or 0.13 0.00 21.6 161.3 39
Happy 1E 11:59 PM 63 60 59 /57 99 / 84 8  (SW) 6.2 18.6 mph 317° @ 0155 PM 2 or 0.08 0.00 21.2 160.4 0
Hart 3N 11:55 PM 63 60 59 /57 99 / 84 9.6  (SE) 6.6 24.9 mph 255° @ 1110 AM 2.5 or 0.1 0.00 20.7 154.8 0
Haskell 1NW 11:55 PM 63 60 59 /57 99 / 84 9.6  (E) 7.1 30.8 mph 245° @ 1250 PM 3 or 0.12 0.00 19.5 142.5 0
Hefner 1SW 11:59 PM 63 60 59 /57 99 / 84 12.2  (NW) 8.4 33.2 mph 203° @ 1137 AM 3.3 or 0.13 0.01 20.2 149.6 0
Hereford 2NW 11:55 PM 63 60 59 /57 99 / 84 5.8  (S) 4.4 13.9 mph 282° @ 1250 PM 1.8 or 0.07 0.00 20.1 152.4 0
Hobbs NM 5NW 11:59 PM 63 60 59 /57 99 / 84 10.2  (NW) 7.2 26.1 mph 243° @ 0323 PM 3.3 or 0.13 0.00 21.7 153.7 0
Jayton 1SSE 11:55 PM 63 60 59 /57 99 / 84 9.5  (S) 6.8 31.1 mph 222° @ 0135 PM 3 or 0.12 0.00 20 145.5 0
Junction 1SSW 11:59 PM 63 60 59 /57 99 / 84 4.3  (N) 1.3 20 mph 179° @ 0201 PM 2 or 0.08 0.00 19.3 128.6 0
Kent 9E 11:59 PM 63 60 59 /57 99 / 84 13.1  (W) 9.3 35.3 mph 246° @ 0129 PM 3.8 or 0.15 0.00 22.3 148.8 113
Knox City 3NW 11:59 PM 63 60 59 /57 99 / 84 10.1  (SW) 6.2 31.8 mph 206° @ 1104 AM 3 or 0.12 0.00 21.1 155.7 1
Lake Alan Henry 1NW 11:59 PM 63 60 59 /57 99 / 84 9.8  (SW) 6.4 31.3 mph 233° @ 0116 PM 3.3 or 0.13 0.00 20.2 146.1 3
Lake McClellan 2NW 11:59 PM 63 60 59 /57 99 / 84 7.3  (SW) 5.6 18.1 mph 209° @ 0818 AM 1.8 or 0.07 0.00 19.9 154.2 0
Lamesa 2SE 11:55 PM 63 60 59 /57 99 / 84 11.1  (NW) 7.2 33.1 mph 222° @ 0110 PM 3.3 or 0.13 0.00 21.3 151.3 50
Lesley 2S 11:59 PM 63 60 59 /57 99 / 84 6.2  (W) 4.5 18.6 mph 239° @ 0220 PM 2 or 0.08 0.00 21.3 162.7 0
Levelland 4S 11:59 PM 63 60 59 /57 99 / 84 13.3  (W) 10.5 39.5 mph 257° @ 1218 PM 3.8 or 0.15 0.01 20.6 150.1 166
Lomax 1SSE 11:59 PM 63 60 59 /57 99 / 84 10.6  (SW) 7.1 30.9 mph 218° @ 1248 PM 3.3 or 0.13 0.00 21.8 152.6 59
Lubbock 3WNW TTU 11:55 PM 63 60 59 /57 99 / 84 10.3  (SE) 6 35.4 mph 242° @ 1105 AM 3 or 0.12 0.00 20.6 150.8 45
McAdoo 3NNW 11:59 PM 63 60 59 /57 99 / 84 13.1  (NE) 6.8 42.7 mph 238° @ 1211 PM 3.3 or 0.13 0.00 20.6 151.4 85
McCamey 1SSW 11:59 PM 63 60 59 /57 99 / 84 4.9  (E) 3.7 21.3 mph 253° @ 0132 PM 2.3 or 0.09 0.00 19.6 132.9 0
McLean 1E 11:55 PM 63 60 59 /57 99 / 84 8.1  (SW) 5.5 19.7 mph 226° @ 0630 AM 2 or 0.08 0.00 21.2 164.7 0
Memphis 1NE 11:59 PM 63 60 59 /57 99 / 84 4.1  (NW) 2 20.8 mph 224° @ 1058 AM 1.5 or 0.06 0.01 20.6 158.1 0
Menard 2NW 11:59 PM 63 60 59 /57 99 / 84 4.9  (N) 3.6 23 mph 237° @ 0319 PM 2.3 or 0.09 0.00 19.5 131.8 0
Mertzon 3NNE 11:59 PM 63 60 59 /57 99 / 84 8.2  (W) 4.7 28.6 mph 221° @ 0128 PM 2.8 or 0.11 0.00 20.6 140.9 0
Morton 1ENE 11:55 PM 63 60 59 /57 99 / 84 13.9  (W) 10.3 40.1 mph 261° @ 0950 AM 4.1 or 0.16 0.00 19.8 144.9 205
Muleshoe 2SSW 11:55 PM 63 60 59 /57 99 / 84 10.8  (SE) 7.4 30.6 mph 262° @ 1055 AM 3 or 0.12 0.00 21.9 162.7 0
New Home 11:59 PM 63 60 59 /57 99 / 84 12.2  (W) 5.3 37.1 mph 230° @ 1207 PM 3.6 or 0.14 0.00 19.7 142.2 90
Northfield 1S 11:55 PM 63 60 59 /57 99 / 84 8.6  (SW) 5.3 24.5 mph 256° @ 0225 PM 2.8 or 0.11 0.00 19.3 145.7 0
O'Donnell 1N 11:55 PM 63 60 59 /57 99 / 84 11.5  (SE) 6.4 34.3 mph 222° @ 1255 PM 3.6 or 0.14 0.00 3.6 130 110
Odell 4ENE 11:59 PM 63 60 59 /57 99 / 84 7.2  (W) 4.3 30.8 mph 205° @ 1141 AM 2.3 or 0.09 0.00 19.5 148.5 0
Olton 6S 11:55 PM 63 60 59 /57 99 / 84 11.7  (SE) 8.2 31.4 mph 244° @ 1205 PM 3 or 0.12 0.00 20.6 152.5 0
Paducah 10SW 11:55 PM 63 60 59 /57 99 / 84 12  (NW) 7.8 35.9 mph 240° @ 0115 PM 3.6 or 0.14 0.00 3.8 140.7 55
Palo Duro 4E (JA Ranch) 11:59 PM 63 60 59 /57 99 / 84 5.8  (W) 3.7 17.7 mph 265° @ 0946 AM 1.8 or 0.07 0.00 20.2 154.8 0
Palo Duro Canyon SP Floor 11:59 PM 63 60 59 /57 99 / 84 2.3  (W) 0.8 19.6 mph 240° @ 0307 PM 1 or 0.04 0.00 18.8 144.2 0
Palo Duro Canyon State Park Rim 11:59 PM 63 60 59 /57 99 / 84 4.2  (SW) 2.1 15.4 mph 164° @ 0455 AM 1.3 or 0.05 0.00 20.8 159.6 0
Palo Duro Reservoir 1NW 11:59 PM 63 60 59 /57 99 / 84 7.4  (SW) 5 22.9 mph 292° @ 0351 PM 2 or 0.08 0.00 18.9 153.1 0
Pampa 2E 11:55 PM 63 60 59 /57 99 / 84 7.2  (S) 4 18 mph 209° @ 0530 AM 2 or 0.08 0.00 19 149 0
Panhandle 1SSW 11:59 PM 63 60 59 /57 99 / 84 5.2  (SW) 3.1 12.9 mph 290° @ 1114 AM 1.5 or 0.06 0.00 20.2 156.7 0
Plains 3N 11:55 PM 63 60 59 /57 99 / 84 13.5  (W) 10.7 29.9 mph 235° @ 0140 PM 3.8 or 0.15 0.00 21.5 154.6 5
Plainview 1S 11:59 PM 63 60 59 /57 99 / 84 8.4  (SW) 6.2 31.8 mph 251° @ 1218 PM 2.3 or 0.09 0.00 21.2 158 0
Post 1NE 11:59 PM 63 60 59 /57 99 / 84 10.9  (NW) 7.5 34 mph 223° @ 1205 PM 3.3 or 0.13 0.00 20.5 148.8 7
Ralls 1SE 11:59 PM 63 60 59 /57 99 / 84 11.8  (N) 8.4 40.6 mph 249° @ 1257 PM 3.3 or 0.13 0.00 20.4 149.4 136
Reese Center 11:59 PM 63 60 59 /57 99 / 84 13  (S) 9.7 42.7 mph 246° @ 1047 AM 3.6 or 0.14 0.00 20.6 150.4 193
Roaring Springs 3N 11:59 PM 63 60 59 /57 99 / 84 11.2  (NW) 8.1 41.7 mph 219° @ 0205 PM 3.3 or 0.13 0.00 20.7 153.4 88
Romero 11SSW 11:59 PM 63 60 59 /57 99 / 84 4.9  (SW) 3 16.6 mph 319° @ 0214 PM 1.5 or 0.06 0.00 18.8 146.6 0
Rotan 5W 11:59 PM 63 60 59 /57 99 / 84 13.3  (NE) 8.5 33 mph 223° @ 0303 PM 3.8 or 0.15 0.00 25.1 180.3 33
San Angelo 7NW 11:55 PM 63 60 59 /57 99 / 84 7.3  (SW) 5.3 26.5 mph 229° @ 0225 PM 2.5 or 0.1 0.00 20.8 143.4 0
Seagraves 1SW 11:55 PM 63 60 59 /57 99 / 84 11.8  (W) 7.2 31.2 mph 238° @ 0250 PM 3.8 or 0.15 0.00 3.7 132.8 0
Segovia 7SSW 11:59 PM 63 60 59 /57 99 / 84 6.3  (N) 3.6 24.8 mph 237° @ 0100 PM 2.5 or 0.1 0.00 21.3 141 0
Seminole 2NNE 11:55 PM 63 60 59 /57 99 / 84 10.6  (W) 7 31.5 mph 218° @ 0145 PM 3.6 or 0.14 0.00 4.2 150.4 0
Seymour 3NW 11:55 PM 63 60 59 /57 99 / 84 7.8  (SW) 5.1 28.5 mph 207° @ 1225 PM 2.5 or 0.1 0.00 17.6 130.4 0
Sierra Blanca 1SSE 11:59 PM 63 60 59 /57 99 / 84 6.7  (NW) 5 19.8 mph 299° @ 0100 PM 2.3 or 0.09 0.00 19.8 132.3 0
Silverton 7ESE 11:55 PM 63 60 59 /57 99 / 84 11.4  (SE) 7.9 32 mph 253° @ 1230 PM 2.8 or 0.11 0.00 18.5 139.1 0
Slaton 2NE 11:59 PM 63 60 59 /57 99 / 84 12  (E) 9.1 39.5 mph 227° @ 1128 AM 3.3 or 0.13 0.00 21.5 156.3 97
Smyer 11:59 PM 63 60 59 /57 99 / 84 12.4  (W) 9.5 39 mph 247° @ 1039 AM 3.6 or 0.14 0.00 21.4 155.7 143
Snyder 3E 11:55 PM 63 60 59 /57 99 / 84 10  (NE) 4.5 32.9 mph 207° @ 0105 PM 3 or 0.12 0.00 18.4 131.5 0
Snyder 3SSW 11:59 PM 63 60 59 /57 99 / 84 11.1  (N) 7.6 32.5 mph 220° @ 0132 PM 3.3 or 0.13 0.00 20.7 147.2 13
South Plains 3ENE 11:59 PM 63 60 59 /57 99 / 84 8.9  (W) 6.3 33.5 mph 260° @ 0112 PM 2.5 or 0.1 0.00 20.2 151.3 0
Spur 1W 11:55 PM 63 60 59 /57 99 / 84 8.1  (NW) 4.7 33 mph 233° @ 0140 PM 2.8 or 0.11 0.00 20.5 150.4 5
St. Lawrence 5SW 11:59 PM 63 60 59 /57 99 / 84 11.4  (E) 7.8 34 mph 213° @ 0110 PM 3.6 or 0.14 0.00 22.7 156.4 20
Stamford 5ESE 11:59 PM 63 60 59 /57 99 / 84 9.8  (E) 6.7 34.3 mph 239° @ 0307 PM 3 or 0.12 0.00 20.8 150.4 0
Sterling City 4WSW 11:59 PM 63 60 59 /57 99 / 84 8  (W) 5.2 27.9 mph 211° @ 1234 PM 2.8 or 0.11 0.00 17.4 120.4 0
Stinnett 1NNW 11:59 PM 63 60 59 /57 99 / 84 8.2  (SW) 4.7 16.9 mph 243° @ 0457 AM 2 or 0.08 0.00 19.9 157.6 0
Stratford 4WNW 11:59 PM 63 60 59 /57 99 / 84 9.2  (SW) 6.1 21.9 mph 330° @ 0106 PM 2.5 or 0.1 0.00 19.4 156.3 0
Sundown 8WSW 11:55 PM 63 60 59 /57 99 / 84 13.6  (W) 9.2 33.1 mph 251° @ 1225 PM 3.8 or 0.15 0.00 18 130 85
Sweetwater 11SW 11:59 PM 63 60 59 /57 99 / 84 10.1  (E) 6.6 33.2 mph 233° @ 0144 PM 3 or 0.12 0.00 22.6 159.1 5
Tahoka 3NNE 11:59 PM 63 60 59 /57 99 / 84 11.7  (NE) 5.7 32.9 mph 226° @ 0130 PM 3.6 or 0.14 0.00 20.7 149.1 66
Tarzan 2WNW 11:59 PM 63 60 59 /57 99 / 84 10.5  (SW) 5.4 29.3 mph 216° @ 1217 PM 3.3 or 0.13 0.00 21.4 149.9 15
Tatum NM 2SW 11:55 PM 63 60 59 /57 99 / 84 13.7  (W) 9.5 33.1 mph 271° @ 0340 PM 3.6 or 0.14 0.00 21.7 155.6 15
Throckmorton 1SW 11:59 PM 63 60 59 /57 99 / 84 8.6  (N) 4.6 29.3 mph 242° @ 0142 PM 2.8 or 0.11 0.00 21.1 154.4 0
Truscott 2SE 11:59 PM 63 60 59 /57 99 / 84 11  (NW) 7.6 33.4 mph 206° @ 1031 AM 3.3 or 0.13 0.00 19.8 147.6 7
Tulia 2ENE 11:55 PM 63 60 59 /57 99 / 84 9.6  (S) 7.2 24 mph 241° @ 1200 PM 2.5 or 0.1 0.00 17.8 133.8 0
Turkey 2WSW 11:55 PM 63 60 59 /57 99 / 84 10.3  (SW) 7.8 25.7 mph 220° @ 0310 PM 2.8 or 0.11 0.00 18 136.2 0
Umbarger 3NNE 11:59 PM 63 60 59 /57 99 / 84 7.3  (S) 4.7 19.9 mph 293° @ 0123 PM 2 or 0.08 0.00 19.7 150.2 0
Van Horn 3ENE 11:59 PM 63 60 59 /57 99 / 84 10.1  (S) 6.4 25.4 mph 242° @ 0235 PM 3.3 or 0.13 0.00 23.2 155.2 0
Vega 4E 11:59 PM 63 60 59 /57 99 / 84 6.1  (S) 4 19.7 mph 198° @ 0229 AM 1.8 or 0.07 0.00 21.3 163.7 0
Vigo Park 11:59 PM 63 60 59 /57 99 / 84 8.8  (S) 5.8 20.2 mph 234° @ 1252 PM 2.3 or 0.09 0.00 18.5 140 0
Wall 2E 11:59 PM 63 60 59 /57 99 / 84 10  (NE) 7.3 26.1 mph 225° @ 0316 PM 3.3 or 0.13 0.00 21.3 146.4 0
Weinert 2NNE 11:59 PM 63 60 59 /57 99 / 84 10.3  (SW) 6.9 31.7 mph 236° @ 1248 PM 3 or 0.12 0.00 18.8 138.2 1
Welch 11:59 PM 63 60 59 /57 99 / 84 11.7  (W) 7.9 30.4 mph 235° @ 0236 PM 3.6 or 0.14 0.00 21.5 153.6 62
Wellington 6SE 11:59 PM 63 60 59 /57 99 / 84 6.6  (NW) 4 18.6 mph 278° @ 0322 PM 2 or 0.08 0.00 21.7 167.1 0
White River Lake 6NW 11:59 PM 63 60 59 /57 99 / 84 10.4  (N) 7.1 37.3 mph 217° @ 0141 PM 3.3 or 0.13 0.00 21.5 157.4 58
Wolfforth 6SSW 11:59 PM 63 60 59 /57 99 / 84 13  (SW) 9.5 38.4 mph 232° @ 1219 PM 3.8 or 0.15 0.00 21.1 152.8 155

WestTexas Mesonet Home    Site Map/Menu  National Weather Service Lubbock   Soil Data   Latest Observation Page   Previous  Date   Next Last